sensor_id;sensor_type;location;lat;lon;timestamp;P1;durP1;ratioP1;P2;durP2;ratioP2
51915;SDS011;37942;53.218;6.548;2022-07-22T00:01:02;20.88;;;7.07;;
51915;SDS011;37942;53.218;6.548;2022-07-22T00:03:28;20.73;;;7.05;;
51915;SDS011;37942;53.218;6.548;2022-07-22T00:05:54;26.00;;;6.10;;
51915;SDS011;37942;53.218;6.548;2022-07-22T00:10:46;18.08;;;6.13;;
51915;SDS011;37942;53.218;6.548;2022-07-22T00:13:12;23.60;;;6.03;;
51915;SDS011;37942;53.218;6.548;2022-07-22T00:15:39;16.60;;;5.38;;
51915;SDS011;37942;53.218;6.548;2022-07-22T00:18:05;21.45;;;5.65;;
51915;SDS011;37942;53.218;6.548;2022-07-22T00:20:31;22.67;;;5.88;;
51915;SDS011;37942;53.218;6.548;2022-07-22T00:25:23;18.60;;;5.50;;
51915;SDS011;37942;53.218;6.548;2022-07-22T00:30:15;18.20;;;5.38;;
51915;SDS011;37942;53.218;6.548;2022-07-22T00:32:41;17.33;;;4.80;;
51915;SDS011;37942;53.218;6.548;2022-07-22T00:35:07;12.90;;;4.53;;
51915;SDS011;37942;53.218;6.548;2022-07-22T00:37:33;18.77;;;5.00;;
51915;SDS011;37942;53.218;6.548;2022-07-22T00:42:25;14.68;;;4.53;;
51915;SDS011;37942;53.218;6.548;2022-07-22T00:44:51;16.02;;;4.38;;
51915;SDS011;37942;53.218;6.548;2022-07-22T00:47:17;22.05;;;4.57;;
51915;SDS011;37942;53.218;6.548;2022-07-22T00:49:43;17.00;;;4.28;;
51915;SDS011;37942;53.218;6.548;2022-07-22T00:52:09;17.95;;;4.47;;
51915;SDS011;37942;53.218;6.548;2022-07-22T00:57:02;17.42;;;4.68;;
51915;SDS011;37942;53.218;6.548;2022-07-22T01:01:54;16.27;;;4.20;;
51915;SDS011;37942;53.218;6.548;2022-07-22T01:06:46;14.82;;;4.65;;
51915;SDS011;37942;53.218;6.548;2022-07-22T01:09:12;13.35;;;4.07;;
51915;SDS011;37942;53.218;6.548;2022-07-22T01:11:39;14.90;;;4.65;;
51915;SDS011;37942;53.218;6.548;2022-07-22T01:14:06;17.00;;;4.43;;
51915;SDS011;37942;53.218;6.548;2022-07-22T01:16:32;17.95;;;4.18;;
51915;SDS011;37942;53.218;6.548;2022-07-22T01:18:58;14.00;;;4.18;;
51915;SDS011;37942;53.218;6.548;2022-07-22T01:23:50;18.10;;;3.72;;
51915;SDS011;37942;53.218;6.548;2022-07-22T01:26:16;15.85;;;3.75;;
51915;SDS011;37942;53.218;6.548;2022-07-22T01:28:42;14.88;;;3.97;;
51915;SDS011;37942;53.218;6.548;2022-07-22T01:33:35;19.90;;;4.88;;
51915;SDS011;37942;53.218;6.548;2022-07-22T01:36:01;16.65;;;3.58;;
51915;SDS011;37942;53.218;6.548;2022-07-22T01:38:28;13.55;;;3.88;;
51915;SDS011;37942;53.218;6.548;2022-07-22T01:40:54;13.48;;;3.80;;
51915;SDS011;37942;53.218;6.548;2022-07-22T01:43:20;13.45;;;3.28;;
51915;SDS011;37942;53.218;6.548;2022-07-22T01:48:12;11.20;;;3.38;;
51915;SDS011;37942;53.218;6.548;2022-07-22T01:50:38;10.23;;;3.08;;
51915;SDS011;37942;53.218;6.548;2022-07-22T01:53:04;13.45;;;3.50;;
51915;SDS011;37942;53.218;6.548;2022-07-22T01:55:31;13.10;;;3.05;;
51915;SDS011;37942;53.218;6.548;2022-07-22T02:00:23;13.00;;;3.72;;
51915;SDS011;37942;53.218;6.548;2022-07-22T02:02:49;12.45;;;3.10;;
51915;SDS011;37942;53.218;6.548;2022-07-22T02:05:15;11.20;;;3.15;;
51915;SDS011;37942;53.218;6.548;2022-07-22T02:10:07;12.80;;;3.35;;
51915;SDS011;37942;53.218;6.548;2022-07-22T02:14:59;12.65;;;3.17;;
51915;SDS011;37942;53.218;6.548;2022-07-22T02:17:26;15.25;;;3.50;;
51915;SDS011;37942;53.218;6.548;2022-07-22T02:19:52;11.48;;;3.40;;
51915;SDS011;37942;53.218;6.548;2022-07-22T02:22:18;15.73;;;3.67;;
51915;SDS011;37942;53.218;6.548;2022-07-22T02:24:44;13.63;;;3.60;;
51915;SDS011;37942;53.218;6.548;2022-07-22T02:27:11;14.70;;;4.45;;
51915;SDS011;37942;53.218;6.548;2022-07-22T02:29:37;13.40;;;3.70;;
51915;SDS011;37942;53.218;6.548;2022-07-22T02:34:29;10.20;;;3.42;;
51915;SDS011;37942;53.218;6.548;2022-07-22T02:36:55;14.90;;;3.28;;
51915;SDS011;37942;53.218;6.548;2022-07-22T02:39:21;13.50;;;3.33;;
51915;SDS011;37942;53.218;6.548;2022-07-22T02:41:48;14.68;;;3.38;;
51915;SDS011;37942;53.218;6.548;2022-07-22T02:44:14;10.93;;;3.20;;
51915;SDS011;37942;53.218;6.548;2022-07-22T02:46:40;11.45;;;3.58;;
51915;SDS011;37942;53.218;6.548;2022-07-22T02:49:06;16.00;;;3.30;;
51915;SDS011;37942;53.218;6.548;2022-07-22T02:51:32;17.48;;;3.63;;
51915;SDS011;37942;53.218;6.548;2022-07-22T02:53:58;13.80;;;3.25;;
51915;SDS011;37942;53.218;6.548;2022-07-22T02:56:24;10.05;;;3.00;;
51915;SDS011;37942;53.218;6.548;2022-07-22T02:58:50;13.55;;;3.15;;
51915;SDS011;37942;53.218;6.548;2022-07-22T03:01:18;10.88;;;3.17;;
51915;SDS011;37942;53.218;6.548;2022-07-22T03:03:44;14.75;;;3.10;;
51915;SDS011;37942;53.218;6.548;2022-07-22T03:06:11;11.32;;;2.80;;
51915;SDS011;37942;53.218;6.548;2022-07-22T03:08:37;10.32;;;3.05;;
51915;SDS011;37942;53.218;6.548;2022-07-22T03:11:04;13.00;;;3.00;;
51915;SDS011;37942;53.218;6.548;2022-07-22T03:13:30;13.02;;;3.08;;
51915;SDS011;37942;53.218;6.548;2022-07-22T03:18:22;12.93;;;3.03;;
51915;SDS011;37942;53.218;6.548;2022-07-22T03:20:48;15.48;;;3.33;;
51915;SDS011;37942;53.218;6.548;2022-07-22T03:23:14;13.80;;;3.17;;
51915;SDS011;37942;53.218;6.548;2022-07-22T03:25:40;12.98;;;3.22;;
51915;SDS011;37942;53.218;6.548;2022-07-22T03:28:07;11.82;;;2.80;;
51915;SDS011;37942;53.218;6.548;2022-07-22T03:30:33;12.70;;;3.20;;
51915;SDS011;37942;53.218;6.548;2022-07-22T03:32:59;10.73;;;3.05;;
51915;SDS011;37942;53.218;6.548;2022-07-22T03:35:25;15.38;;;3.40;;
51915;SDS011;37942;53.218;6.548;2022-07-22T03:40:17;13.48;;;3.45;;
51915;SDS011;37942;53.218;6.548;2022-07-22T03:42:43;12.10;;;3.35;;
51915;SDS011;37942;53.218;6.548;2022-07-22T03:45:09;13.45;;;3.47;;
51915;SDS011;37942;53.218;6.548;2022-07-22T03:47:36;13.80;;;3.60;;
51915;SDS011;37942;53.218;6.548;2022-07-22T03:52:28;16.02;;;3.70;;
51915;SDS011;37942;53.218;6.548;2022-07-22T03:54:55;14.57;;;3.58;;
51915;SDS011;37942;53.218;6.548;2022-07-22T03:57:21;11.32;;;3.00;;
51915;SDS011;37942;53.218;6.548;2022-07-22T04:02:13;13.98;;;3.33;;
51915;SDS011;37942;53.218;6.548;2022-07-22T04:07:05;15.20;;;3.45;;
51915;SDS011;37942;53.218;6.548;2022-07-22T04:09:31;14.30;;;3.60;;
51915;SDS011;37942;53.218;6.548;2022-07-22T04:11:57;14.30;;;3.22;;
51915;SDS011;37942;53.218;6.548;2022-07-22T04:14:23;13.77;;;3.13;;
51915;SDS011;37942;53.218;6.548;2022-07-22T04:16:49;15.25;;;3.67;;
51915;SDS011;37942;53.218;6.548;2022-07-22T04:19:15;15.73;;;3.50;;
51915;SDS011;37942;53.218;6.548;2022-07-22T04:21:41;14.82;;;3.50;;
51915;SDS011;37942;53.218;6.548;2022-07-22T04:24:08;13.07;;;3.55;;
51915;SDS011;37942;53.218;6.548;2022-07-22T04:29:01;15.30;;;3.92;;
51915;SDS011;37942;53.218;6.548;2022-07-22T04:31:27;11.23;;;3.10;;
51915;SDS011;37942;53.218;6.548;2022-07-22T04:33:53;8.75;;;2.88;;
51915;SDS011;37942;53.218;6.548;2022-07-22T04:36:19;12.60;;;3.30;;
51915;SDS011;37942;53.218;6.548;2022-07-22T04:38:46;13.00;;;2.92;;
51915;SDS011;37942;53.218;6.548;2022-07-22T04:41:12;12.13;;;3.20;;
51915;SDS011;37942;53.218;6.548;2022-07-22T04:43:38;10.68;;;3.25;;
51915;SDS011;37942;53.218;6.548;2022-07-22T04:46:04;15.43;;;3.60;;
51915;SDS011;37942;53.218;6.548;2022-07-22T04:50:59;16.40;;;3.60;;
51915;SDS011;37942;53.218;6.548;2022-07-22T04:53:26;15.90;;;3.25;;
51915;SDS011;37942;53.218;6.548;2022-07-22T04:55:52;13.00;;;3.15;;
51915;SDS011;37942;53.218;6.548;2022-07-22T05:00:44;12.20;;;2.95;;
51915;SDS011;37942;53.218;6.548;2022-07-22T05:03:11;14.98;;;3.30;;
51915;SDS011;37942;53.218;6.548;2022-07-22T05:05:38;11.82;;;3.40;;
51915;SDS011;37942;53.218;6.548;2022-07-22T05:08:04;12.75;;;3.08;;
51915;SDS011;37942;53.218;6.548;2022-07-22T05:12:57;9.05;;;2.65;;
51915;SDS011;37942;53.218;6.548;2022-07-22T05:15:23;12.65;;;2.95;;
51915;SDS011;37942;53.218;6.548;2022-07-22T05:17:49;10.93;;;3.08;;
51915;SDS011;37942;53.218;6.548;2022-07-22T05:22:42;11.45;;;2.83;;
51915;SDS011;37942;53.218;6.548;2022-07-22T05:25:08;13.10;;;3.35;;
51915;SDS011;37942;53.218;6.548;2022-07-22T05:27:34;11.32;;;2.58;;
51915;SDS011;37942;53.218;6.548;2022-07-22T05:30:00;11.55;;;3.00;;
51915;SDS011;37942;53.218;6.548;2022-07-22T05:32:26;12.40;;;2.90;;
51915;SDS011;37942;53.218;6.548;2022-07-22T05:37:18;10.80;;;3.00;;
51915;SDS011;37942;53.218;6.548;2022-07-22T05:39:44;11.32;;;2.78;;
51915;SDS011;37942;53.218;6.548;2022-07-22T05:42:10;14.27;;;3.08;;
51915;SDS011;37942;53.218;6.548;2022-07-22T05:44:37;15.70;;;3.30;;
51915;SDS011;37942;53.218;6.548;2022-07-22T05:47:03;11.88;;;3.22;;
51915;SDS011;37942;53.218;6.548;2022-07-22T05:49:29;10.85;;;2.92;;
51915;SDS011;37942;53.218;6.548;2022-07-22T05:51:55;11.63;;;3.10;;
51915;SDS011;37942;53.218;6.548;2022-07-22T05:54:25;13.00;;;2.97;;
51915;SDS011;37942;53.218;6.548;2022-07-22T05:56:51;12.35;;;3.00;;
51915;SDS011;37942;53.218;6.548;2022-07-22T05:59:17;13.68;;;2.95;;
51915;SDS011;37942;53.218;6.548;2022-07-22T06:01:43;10.18;;;3.15;;
51915;SDS011;37942;53.218;6.548;2022-07-22T06:04:09;13.23;;;2.92;;
51915;SDS011;37942;53.218;6.548;2022-07-22T06:06:35;12.82;;;3.42;;
51915;SDS011;37942;53.218;6.548;2022-07-22T06:09:01;13.60;;;3.50;;
51915;SDS011;37942;53.218;6.548;2022-07-22T06:11:27;13.60;;;3.25;;
51915;SDS011;37942;53.218;6.548;2022-07-22T06:13:53;13.57;;;3.08;;
51915;SDS011;37942;53.218;6.548;2022-07-22T06:16:19;11.02;;;3.20;;
51915;SDS011;37942;53.218;6.548;2022-07-22T06:18:45;10.88;;;3.17;;
51915;SDS011;37942;53.218;6.548;2022-07-22T06:21:11;12.77;;;2.97;;
51915;SDS011;37942;53.218;6.548;2022-07-22T06:23:37;11.80;;;3.30;;
51915;SDS011;37942;53.218;6.548;2022-07-22T06:26:03;11.00;;;2.80;;
51915;SDS011;37942;53.218;6.548;2022-07-22T06:28:30;11.80;;;3.25;;
51915;SDS011;37942;53.218;6.548;2022-07-22T06:30:56;15.02;;;3.00;;
51915;SDS011;37942;53.218;6.548;2022-07-22T06:35:48;16.63;;;3.08;;
51915;SDS011;37942;53.218;6.548;2022-07-22T06:38:15;11.60;;;3.30;;
51915;SDS011;37942;53.218;6.548;2022-07-22T06:40:41;13.85;;;3.05;;
51915;SDS011;37942;53.218;6.548;2022-07-22T06:43:07;13.68;;;3.28;;
51915;SDS011;37942;53.218;6.548;2022-07-22T06:45:33;14.32;;;3.17;;
51915;SDS011;37942;53.218;6.548;2022-07-22T06:47:59;8.88;;;2.78;;
51915;SDS011;37942;53.218;6.548;2022-07-22T06:50:26;10.40;;;3.00;;
51915;SDS011;37942;53.218;6.548;2022-07-22T06:52:52;13.02;;;3.30;;
51915;SDS011;37942;53.218;6.548;2022-07-22T06:55:18;13.20;;;3.03;;
51915;SDS011;37942;53.218;6.548;2022-07-22T06:57:44;16.42;;;2.90;;
51915;SDS011;37942;53.218;6.548;2022-07-22T07:00:10;11.98;;;2.55;;
51915;SDS011;37942;53.218;6.548;2022-07-22T07:02:37;10.63;;;2.72;;
51915;SDS011;37942;53.218;6.548;2022-07-22T07:05:03;8.15;;;2.42;;
51915;SDS011;37942;53.218;6.548;2022-07-22T07:07:29;12.45;;;2.97;;
51915;SDS011;37942;53.218;6.548;2022-07-22T07:09:56;10.75;;;3.03;;
51915;SDS011;37942;53.218;6.548;2022-07-22T07:12:22;11.23;;;2.85;;
51915;SDS011;37942;53.218;6.548;2022-07-22T07:17:14;9.55;;;2.20;;
51915;SDS011;37942;53.218;6.548;2022-07-22T07:19:40;8.95;;;2.53;;
51915;SDS011;37942;53.218;6.548;2022-07-22T07:22:06;10.82;;;2.20;;
51915;SDS011;37942;53.218;6.548;2022-07-22T07:24:32;10.00;;;2.40;;
51915;SDS011;37942;53.218;6.548;2022-07-22T07:26:58;10.40;;;2.38;;
51915;SDS011;37942;53.218;6.548;2022-07-22T07:29:24;10.27;;;2.60;;
51915;SDS011;37942;53.218;6.548;2022-07-22T07:31:50;11.60;;;2.47;;
51915;SDS011;37942;53.218;6.548;2022-07-22T07:36:43;9.02;;;2.50;;
51915;SDS011;37942;53.218;6.548;2022-07-22T07:39:09;11.63;;;2.50;;
51915;SDS011;37942;53.218;6.548;2022-07-22T07:41:35;14.02;;;2.33;;
51915;SDS011;37942;53.218;6.548;2022-07-22T07:44:01;8.10;;;2.42;;
51915;SDS011;37942;53.218;6.548;2022-07-22T07:46:27;11.88;;;2.92;;
51915;SDS011;37942;53.218;6.548;2022-07-22T07:48:53;8.52;;;2.40;;
51915;SDS011;37942;53.218;6.548;2022-07-22T07:51:19;9.90;;;2.50;;
51915;SDS011;37942;53.218;6.548;2022-07-22T07:53:45;10.98;;;2.60;;
51915;SDS011;37942;53.218;6.548;2022-07-22T07:56:11;9.27;;;2.70;;
51915;SDS011;37942;53.218;6.548;2022-07-22T07:58:37;13.55;;;3.17;;
51915;SDS011;37942;53.218;6.548;2022-07-22T08:01:04;11.10;;;2.30;;
51915;SDS011;37942;53.218;6.548;2022-07-22T08:03:30;9.38;;;2.28;;
51915;SDS011;37942;53.218;6.548;2022-07-22T08:05:56;11.57;;;2.40;;
51915;SDS011;37942;53.218;6.548;2022-07-22T08:08:24;8.80;;;2.63;;
51915;SDS011;37942;53.218;6.548;2022-07-22T08:13:17;12.05;;;2.42;;
51915;SDS011;37942;53.218;6.548;2022-07-22T08:18:09;7.10;;;2.38;;
51915;SDS011;37942;53.218;6.548;2022-07-22T08:20:35;10.10;;;2.28;;
51915;SDS011;37942;53.218;6.548;2022-07-22T08:23:01;10.50;;;2.40;;
51915;SDS011;37942;53.218;6.548;2022-07-22T08:27:53;10.20;;;2.28;;
51915;SDS011;37942;53.218;6.548;2022-07-22T08:30:19;8.80;;;2.42;;
51915;SDS011;37942;53.218;6.548;2022-07-22T08:32:48;9.30;;;2.50;;
51915;SDS011;37942;53.218;6.548;2022-07-22T08:37:40;11.95;;;2.80;;
51915;SDS011;37942;53.218;6.548;2022-07-22T08:40:06;15.32;;;2.72;;
51915;SDS011;37942;53.218;6.548;2022-07-22T08:42:38;11.43;;;2.58;;
51915;SDS011;37942;53.218;6.548;2022-07-22T08:45:04;14.25;;;3.15;;
51915;SDS011;37942;53.218;6.548;2022-07-22T08:47:30;10.77;;;2.60;;
51915;SDS011;37942;53.218;6.548;2022-07-22T08:49:56;11.60;;;2.40;;
51915;SDS011;37942;53.218;6.548;2022-07-22T08:52:22;9.05;;;2.38;;
51915;SDS011;37942;53.218;6.548;2022-07-22T08:54:48;8.73;;;2.33;;
51915;SDS011;37942;53.218;6.548;2022-07-22T08:57:14;10.55;;;2.72;;
51915;SDS011;37942;53.218;6.548;2022-07-22T08:59:53;9.55;;;2.50;;
51915;SDS011;37942;53.218;6.548;2022-07-22T09:02:20;13.63;;;2.40;;
51915;SDS011;37942;53.218;6.548;2022-07-22T09:09:54;14.02;;;2.80;;
51915;SDS011;37942;53.218;6.548;2022-07-22T09:14:48;14.15;;;2.97;;
51915;SDS011;37942;53.218;6.548;2022-07-22T09:17:24;10.60;;;2.28;;
51915;SDS011;37942;53.218;6.548;2022-07-22T09:19:51;9.98;;;2.42;;
51915;SDS011;37942;53.218;6.548;2022-07-22T09:22:33;10.40;;;2.45;;
51915;SDS011;37942;53.218;6.548;2022-07-22T09:25:33;9.68;;;2.45;;
51915;SDS011;37942;53.218;6.548;2022-07-22T09:27:53;12.82;;;3.17;;
51915;SDS011;37942;53.218;6.548;2022-07-22T09:30:20;9.93;;;2.50;;
51915;SDS011;37942;53.218;6.548;2022-07-22T09:32:47;9.85;;;2.50;;
51915;SDS011;37942;53.218;6.548;2022-07-22T09:35:13;9.88;;;2.83;;
51915;SDS011;37942;53.218;6.548;2022-07-22T09:40:15;11.52;;;2.70;;
51915;SDS011;37942;53.218;6.548;2022-07-22T09:42:45;7.88;;;2.17;;
51915;SDS011;37942;53.218;6.548;2022-07-22T09:45:12;13.80;;;2.50;;
51915;SDS011;37942;53.218;6.548;2022-07-22T09:50:05;9.45;;;2.55;;
51915;SDS011;37942;53.218;6.548;2022-07-22T09:52:39;12.45;;;2.40;;
51915;SDS011;37942;53.218;6.548;2022-07-22T09:55:07;13.45;;;2.50;;
51915;SDS011;37942;53.218;6.548;2022-07-22T09:57:33;9.38;;;2.30;;
51915;SDS011;37942;53.218;6.548;2022-07-22T10:02:25;7.65;;;2.08;;
51915;SDS011;37942;53.218;6.548;2022-07-22T10:04:53;10.45;;;2.28;;
51915;SDS011;37942;53.218;6.548;2022-07-22T10:07:20;5.13;;;1.63;;
51915;SDS011;37942;53.218;6.548;2022-07-22T10:09:47;8.10;;;2.03;;
51915;SDS011;37942;53.218;6.548;2022-07-22T10:12:14;8.60;;;1.88;;
51915;SDS011;37942;53.218;6.548;2022-07-22T10:14:40;9.70;;;2.42;;
51915;SDS011;37942;53.218;6.548;2022-07-22T10:17:07;7.50;;;2.13;;
51915;SDS011;37942;53.218;6.548;2022-07-22T10:19:34;7.72;;;2.33;;
51915;SDS011;37942;53.218;6.548;2022-07-22T10:22:00;9.73;;;1.90;;
51915;SDS011;37942;53.218;6.548;2022-07-22T10:24:26;5.45;;;1.70;;
51915;SDS011;37942;53.218;6.548;2022-07-22T10:26:53;7.82;;;1.90;;
51915;SDS011;37942;53.218;6.548;2022-07-22T10:29:24;6.03;;;1.80;;
51915;SDS011;37942;53.218;6.548;2022-07-22T10:32:09;7.53;;;2.00;;
51915;SDS011;37942;53.218;6.548;2022-07-22T10:34:37;7.28;;;1.92;;
51915;SDS011;37942;53.218;6.548;2022-07-22T10:37:03;6.75;;;1.80;;
51915;SDS011;37942;53.218;6.548;2022-07-22T10:41:55;5.93;;;2.00;;
51915;SDS011;37942;53.218;6.548;2022-07-22T10:47:06;5.45;;;1.65;;
51915;SDS011;37942;53.218;6.548;2022-07-22T10:54:33;6.07;;;2.00;;
51915;SDS011;37942;53.218;6.548;2022-07-22T10:56:59;5.78;;;2.00;;
51915;SDS011;37942;53.218;6.548;2022-07-22T10:59:25;6.78;;;1.73;;
51915;SDS011;37942;53.218;6.548;2022-07-22T11:06:46;8.85;;;1.90;;
51915;SDS011;37942;53.218;6.548;2022-07-22T11:09:13;6.38;;;1.90;;
51915;SDS011;37942;53.218;6.548;2022-07-22T11:11:43;6.90;;;1.80;;
51915;SDS011;37942;53.218;6.548;2022-07-22T11:16:50;8.48;;;1.83;;
51915;SDS011;37942;53.218;6.548;2022-07-22T11:19:21;5.13;;;1.80;;
51915;SDS011;37942;53.218;6.548;2022-07-22T11:21:51;5.03;;;1.67;;
51915;SDS011;37942;53.218;6.548;2022-07-22T11:24:17;7.82;;;1.70;;
51915;SDS011;37942;53.218;6.548;2022-07-22T11:26:45;9.15;;;1.90;;
51915;SDS011;37942;53.218;6.548;2022-07-22T11:29:16;6.38;;;1.60;;
51915;SDS011;37942;53.218;6.548;2022-07-22T11:31:43;8.32;;;1.83;;
51915;SDS011;37942;53.218;6.548;2022-07-22T11:36:36;6.03;;;1.70;;
51915;SDS011;37942;53.218;6.548;2022-07-22T11:39:02;6.55;;;1.70;;
51915;SDS011;37942;53.218;6.548;2022-07-22T11:41:29;4.72;;;1.70;;
51915;SDS011;37942;53.218;6.548;2022-07-22T11:43:56;5.18;;;1.60;;
51915;SDS011;37942;53.218;6.548;2022-07-22T11:46:22;7.57;;;1.83;;
51915;SDS011;37942;53.218;6.548;2022-07-22T11:48:50;5.18;;;1.85;;
51915;SDS011;37942;53.218;6.548;2022-07-22T11:51:16;5.05;;;1.50;;
51915;SDS011;37942;53.218;6.548;2022-07-22T11:56:09;9.50;;;1.80;;
51915;SDS011;37942;53.218;6.548;2022-07-22T11:58:36;20.20;;;4.03;;
51915;SDS011;37942;53.218;6.548;2022-07-22T12:01:03;7.63;;;1.90;;
51915;SDS011;37942;53.218;6.548;2022-07-22T12:03:31;5.82;;;1.60;;
51915;SDS011;37942;53.218;6.548;2022-07-22T12:05:57;6.43;;;1.90;;
51915;SDS011;37942;53.218;6.548;2022-07-22T12:08:23;6.07;;;1.40;;
51915;SDS011;37942;53.218;6.548;2022-07-22T12:10:49;6.75;;;1.90;;
51915;SDS011;37942;53.218;6.548;2022-07-22T12:15:42;8.07;;;2.40;;
51915;SDS011;37942;53.218;6.548;2022-07-22T12:18:14;5.28;;;1.70;;
51915;SDS011;37942;53.218;6.548;2022-07-22T12:20:44;5.18;;;1.35;;
51915;SDS011;37942;53.218;6.548;2022-07-22T12:23:10;5.72;;;1.60;;
51915;SDS011;37942;53.218;6.548;2022-07-22T12:25:53;6.47;;;1.63;;
51915;SDS011;37942;53.218;6.548;2022-07-22T12:28:20;6.30;;;1.50;;
51915;SDS011;37942;53.218;6.548;2022-07-22T12:30:46;5.22;;;1.60;;
51915;SDS011;37942;53.218;6.548;2022-07-22T12:35:38;5.35;;;1.83;;
51915;SDS011;37942;53.218;6.548;2022-07-22T12:40:30;7.20;;;1.50;;
51915;SDS011;37942;53.218;6.548;2022-07-22T12:43:01;4.90;;;1.33;;
51915;SDS011;37942;53.218;6.548;2022-07-22T12:45:29;5.90;;;1.70;;
51915;SDS011;37942;53.218;6.548;2022-07-22T12:52:52;6.38;;;1.80;;
51915;SDS011;37942;53.218;6.548;2022-07-22T12:55:19;4.72;;;1.52;;
51915;SDS011;37942;53.218;6.548;2022-07-22T13:00:15;6.00;;;1.50;;
51915;SDS011;37942;53.218;6.548;2022-07-22T13:02:41;5.10;;;1.80;;
51915;SDS011;37942;53.218;6.548;2022-07-22T13:05:07;3.97;;;1.60;;
51915;SDS011;37942;53.218;6.548;2022-07-22T13:07:33;5.45;;;1.80;;
51915;SDS011;37942;53.218;6.548;2022-07-22T13:09:59;4.72;;;1.55;;
51915;SDS011;37942;53.218;6.548;2022-07-22T13:12:25;4.07;;;1.40;;
51915;SDS011;37942;53.218;6.548;2022-07-22T13:14:51;7.97;;;1.95;;
51915;SDS011;37942;53.218;6.548;2022-07-22T13:17:17;3.28;;;1.40;;
51915;SDS011;37942;53.218;6.548;2022-07-22T13:19:44;4.32;;;1.58;;
51915;SDS011;37942;53.218;6.548;2022-07-22T13:24:36;10.60;;;1.90;;
51915;SDS011;37942;53.218;6.548;2022-07-22T13:27:02;10.43;;;1.80;;
51915;SDS011;37942;53.218;6.548;2022-07-22T13:31:55;10.35;;;2.35;;
51915;SDS011;37942;53.218;6.548;2022-07-22T13:34:21;8.32;;;2.33;;
51915;SDS011;37942;53.218;6.548;2022-07-22T13:39:13;6.13;;;1.73;;
51915;SDS011;37942;53.218;6.548;2022-07-22T13:44:05;9.75;;;2.20;;
51915;SDS011;37942;53.218;6.548;2022-07-22T13:46:34;10.00;;;2.45;;
51915;SDS011;37942;53.218;6.548;2022-07-22T13:49:01;6.47;;;1.83;;
51915;SDS011;37942;53.218;6.548;2022-07-22T13:53:53;7.38;;;2.15;;
51915;SDS011;37942;53.218;6.548;2022-07-22T13:56:19;8.05;;;2.28;;
51915;SDS011;37942;53.218;6.548;2022-07-22T14:01:11;7.82;;;2.10;;
51915;SDS011;37942;53.218;6.548;2022-07-22T14:03:37;6.20;;;2.08;;
51915;SDS011;37942;53.218;6.548;2022-07-22T14:06:04;8.95;;;2.22;;
51915;SDS011;37942;53.218;6.548;2022-07-22T14:08:30;7.78;;;2.00;;
51915;SDS011;37942;53.218;6.548;2022-07-22T14:10:57;9.48;;;2.20;;
51915;SDS011;37942;53.218;6.548;2022-07-22T14:13:23;7.00;;;1.92;;
51915;SDS011;37942;53.218;6.548;2022-07-22T14:15:49;5.35;;;2.10;;
51915;SDS011;37942;53.218;6.548;2022-07-22T14:18:15;7.70;;;2.20;;
51915;SDS011;37942;53.218;6.548;2022-07-22T14:20:41;6.63;;;2.03;;
51915;SDS011;37942;53.218;6.548;2022-07-22T14:25:37;6.40;;;2.00;;
51915;SDS011;37942;53.218;6.548;2022-07-22T14:28:03;8.65;;;2.13;;
51915;SDS011;37942;53.218;6.548;2022-07-22T14:30:30;8.30;;;2.15;;
51915;SDS011;37942;53.218;6.548;2022-07-22T14:32:56;5.55;;;2.05;;
51915;SDS011;37942;53.218;6.548;2022-07-22T14:35:22;8.50;;;1.83;;
51915;SDS011;37942;53.218;6.548;2022-07-22T14:37:48;10.02;;;2.17;;
51915;SDS011;37942;53.218;6.548;2022-07-22T14:40:14;5.82;;;1.77;;
51915;SDS011;37942;53.218;6.548;2022-07-22T14:42:40;8.98;;;1.70;;
51915;SDS011;37942;53.218;6.548;2022-07-22T14:45:06;14.05;;;2.25;;
51915;SDS011;37942;53.218;6.548;2022-07-22T14:47:35;7.25;;;2.08;;
51915;SDS011;37942;53.218;6.548;2022-07-22T14:50:01;6.75;;;1.90;;
51915;SDS011;37942;53.218;6.548;2022-07-22T14:52:27;4.22;;;1.70;;
51915;SDS011;37942;53.218;6.548;2022-07-22T14:57:19;8.80;;;2.20;;
51915;SDS011;37942;53.218;6.548;2022-07-22T14:59:45;8.38;;;2.45;;
51915;SDS011;37942;53.218;6.548;2022-07-22T15:02:11;6.45;;;2.00;;
51915;SDS011;37942;53.218;6.548;2022-07-22T15:04:37;9.02;;;2.25;;
51915;SDS011;37942;53.218;6.548;2022-07-22T15:07:03;7.03;;;2.00;;
51915;SDS011;37942;53.218;6.548;2022-07-22T15:09:29;8.32;;;2.00;;
51915;SDS011;37942;53.218;6.548;2022-07-22T15:11:55;14.07;;;2.40;;
51915;SDS011;37942;53.218;6.548;2022-07-22T15:14:22;8.38;;;2.30;;
51915;SDS011;37942;53.218;6.548;2022-07-22T15:19:14;10.85;;;2.80;;
51915;SDS011;37942;53.218;6.548;2022-07-22T15:24:06;7.50;;;2.10;;
51915;SDS011;37942;53.218;6.548;2022-07-22T15:26:33;9.65;;;2.00;;
51915;SDS011;37942;53.218;6.548;2022-07-22T15:31:25;7.32;;;2.00;;
51915;SDS011;37942;53.218;6.548;2022-07-22T15:33:53;4.55;;;1.98;;
51915;SDS011;37942;53.218;6.548;2022-07-22T15:36:19;10.30;;;2.10;;
51915;SDS011;37942;53.218;6.548;2022-07-22T15:41:11;7.57;;;1.80;;
51915;SDS011;37942;53.218;6.548;2022-07-22T15:43:38;8.25;;;1.98;;
51915;SDS011;37942;53.218;6.548;2022-07-22T15:46:04;9.23;;;2.00;;
51915;SDS011;37942;53.218;6.548;2022-07-22T15:48:30;7.13;;;2.10;;
51915;SDS011;37942;53.218;6.548;2022-07-22T15:53:22;5.70;;;1.80;;
51915;SDS011;37942;53.218;6.548;2022-07-22T15:58:15;7.95;;;2.25;;
51915;SDS011;37942;53.218;6.548;2022-07-22T16:00:59;8.52;;;2.10;;
51915;SDS011;37942;53.218;6.548;2022-07-22T16:03:25;9.13;;;2.17;;
51915;SDS011;37942;53.218;6.548;2022-07-22T16:08:17;5.35;;;2.20;;
51915;SDS011;37942;53.218;6.548;2022-07-22T16:10:43;10.52;;;2.10;;
51915;SDS011;37942;53.218;6.548;2022-07-22T16:13:09;7.15;;;1.98;;
51915;SDS011;37942;53.218;6.548;2022-07-22T16:15:35;7.50;;;2.03;;
51915;SDS011;37942;53.218;6.548;2022-07-22T16:20:28;7.25;;;1.98;;
51915;SDS011;37942;53.218;6.548;2022-07-22T16:22:54;10.25;;;2.00;;
51915;SDS011;37942;53.218;6.548;2022-07-22T16:25:20;10.18;;;1.92;;
51915;SDS011;37942;53.218;6.548;2022-07-22T16:27:46;6.60;;;2.10;;
51915;SDS011;37942;53.218;6.548;2022-07-22T16:32:39;9.05;;;2.20;;
51915;SDS011;37942;53.218;6.548;2022-07-22T16:35:06;8.45;;;2.42;;
51915;SDS011;37942;53.218;6.548;2022-07-22T16:37:32;9.30;;;1.83;;
51915;SDS011;37942;53.218;6.548;2022-07-22T16:39:58;7.03;;;2.03;;
51915;SDS011;37942;53.218;6.548;2022-07-22T16:42:24;6.93;;;1.95;;
51915;SDS011;37942;53.218;6.548;2022-07-22T16:44:50;12.68;;;2.20;;
51915;SDS011;37942;53.218;6.548;2022-07-22T16:47:16;4.85;;;1.90;;
51915;SDS011;37942;53.218;6.548;2022-07-22T16:49:42;7.93;;;3.05;;
51915;SDS011;37942;53.218;6.548;2022-07-22T16:52:08;8.13;;;2.05;;
51915;SDS011;37942;53.218;6.548;2022-07-22T16:54:34;8.45;;;2.40;;
51915;SDS011;37942;53.218;6.548;2022-07-22T16:57:00;6.28;;;2.20;;
51915;SDS011;37942;53.218;6.548;2022-07-22T17:01:52;9.35;;;2.45;;
51915;SDS011;37942;53.218;6.548;2022-07-22T17:04:18;11.02;;;2.60;;
51915;SDS011;37942;53.218;6.548;2022-07-22T17:06:45;7.10;;;2.72;;
51915;SDS011;37942;53.218;6.548;2022-07-22T17:09:11;11.68;;;2.90;;
51915;SDS011;37942;53.218;6.548;2022-07-22T17:14:03;11.10;;;2.70;;
51915;SDS011;37942;53.218;6.548;2022-07-22T17:16:29;9.68;;;2.72;;
51915;SDS011;37942;53.218;6.548;2022-07-22T17:18:55;10.38;;;2.92;;
51915;SDS011;37942;53.218;6.548;2022-07-22T17:21:21;7.68;;;2.45;;
51915;SDS011;37942;53.218;6.548;2022-07-22T17:26:13;14.48;;;2.95;;
51915;SDS011;37942;53.218;6.548;2022-07-22T17:28:39;7.88;;;2.30;;
51915;SDS011;37942;53.218;6.548;2022-07-22T17:31:06;9.40;;;2.42;;
51915;SDS011;37942;53.218;6.548;2022-07-22T17:33:32;9.55;;;2.50;;
51915;SDS011;37942;53.218;6.548;2022-07-22T17:38:25;8.38;;;2.50;;